sensor_id;sensor_type;location;lat;lon;timestamp;P1;durP1;ratioP1;P2;durP2;ratioP2
35648;SDS011;21768;48.562;13.414;2024-03-29T00:01:39;5.18;;;3.42;;
35648;SDS011;21768;48.562;13.414;2024-03-29T00:04:05;12.35;;;4.40;;
35648;SDS011;21768;48.562;13.414;2024-03-29T00:06:30;7.55;;;4.30;;
35648;SDS011;21768;48.562;13.414;2024-03-29T00:08:56;11.10;;;3.90;;
35648;SDS011;21768;48.562;13.414;2024-03-29T00:11:21;37.08;;;5.00;;
35648;SDS011;21768;48.562;13.414;2024-03-29T00:13:47;52.78;;;4.22;;
35648;SDS011;21768;48.562;13.414;2024-03-29T00:16:12;58.45;;;5.18;;
35648;SDS011;21768;48.562;13.414;2024-03-29T00:18:38;72.95;;;4.20;;
35648;SDS011;21768;48.562;13.414;2024-03-29T00:21:03;78.70;;;3.97;;
35648;SDS011;21768;48.562;13.414;2024-03-29T00:23:29;73.78;;;4.50;;
35648;SDS011;21768;48.562;13.414;2024-03-29T00:25:54;234.82;;;6.18;;
35648;SDS011;21768;48.562;13.414;2024-03-29T00:28:23;180.32;;;5.63;;
35648;SDS011;21768;48.562;13.414;2024-03-29T00:30:49;154.00;;;5.45;;
35648;SDS011;21768;48.562;13.414;2024-03-29T00:33:14;145.68;;;5.90;;
35648;SDS011;21768;48.562;13.414;2024-03-29T00:35:40;183.65;;;7.60;;
35648;SDS011;21768;48.562;13.414;2024-03-29T00:38:06;212.38;;;5.95;;
35648;SDS011;21768;48.562;13.414;2024-03-29T00:40:31;307.38;;;9.77;;
35648;SDS011;21768;48.562;13.414;2024-03-29T00:42:56;300.25;;;9.65;;
35648;SDS011;21768;48.562;13.414;2024-03-29T00:45:22;232.75;;;6.63;;
35648;SDS011;21768;48.562;13.414;2024-03-29T00:47:47;328.25;;;12.10;;
35648;SDS011;21768;48.562;13.414;2024-03-29T00:50:13;361.27;;;11.10;;
35648;SDS011;21768;48.562;13.414;2024-03-29T00:52:38;317.10;;;9.68;;
35648;SDS011;21768;48.562;13.414;2024-03-29T00:55:04;233.68;;;7.65;;
35648;SDS011;21768;48.562;13.414;2024-03-29T00:57:30;344.13;;;9.05;;
35648;SDS011;21768;48.562;13.414;2024-03-29T00:59:55;339.50;;;9.00;;
35648;SDS011;21768;48.562;13.414;2024-03-29T01:02:24;280.02;;;7.95;;
35648;SDS011;21768;48.562;13.414;2024-03-29T01:04:52;375.00;;;14.85;;
35648;SDS011;21768;48.562;13.414;2024-03-29T01:07:18;276.85;;;8.52;;
35648;SDS011;21768;48.562;13.414;2024-03-29T01:09:43;318.98;;;9.73;;
35648;SDS011;21768;48.562;13.414;2024-03-29T01:12:09;228.23;;;8.05;;
35648;SDS011;21768;48.562;13.414;2024-03-29T01:14:35;369.15;;;9.27;;
35648;SDS011;21768;48.562;13.414;2024-03-29T01:17:01;337.85;;;10.50;;
35648;SDS011;21768;48.562;13.414;2024-03-29T01:19:27;209.98;;;8.50;;
35648;SDS011;21768;48.562;13.414;2024-03-29T01:21:52;138.45;;;7.18;;
35648;SDS011;21768;48.562;13.414;2024-03-29T01:24:18;264.65;;;9.05;;
35648;SDS011;21768;48.562;13.414;2024-03-29T01:26:44;217.70;;;8.23;;
35648;SDS011;21768;48.562;13.414;2024-03-29T01:29:09;199.48;;;7.60;;
35648;SDS011;21768;48.562;13.414;2024-03-29T01:31:36;214.80;;;7.38;;
35648;SDS011;21768;48.562;13.414;2024-03-29T01:34:02;124.38;;;7.00;;
35648;SDS011;21768;48.562;13.414;2024-03-29T01:36:28;94.25;;;5.90;;
35648;SDS011;21768;48.562;13.414;2024-03-29T01:38:54;184.93;;;6.72;;
35648;SDS011;21768;48.562;13.414;2024-03-29T01:41:23;159.50;;;6.22;;
35648;SDS011;21768;48.562;13.414;2024-03-29T01:43:51;179.38;;;7.28;;
35648;SDS011;21768;48.562;13.414;2024-03-29T01:46:18;102.22;;;5.85;;
35648;SDS011;21768;48.562;13.414;2024-03-29T01:48:45;150.85;;;6.28;;
35648;SDS011;21768;48.562;13.414;2024-03-29T01:51:11;223.75;;;8.07;;
35648;SDS011;21768;48.562;13.414;2024-03-29T01:53:40;378.52;;;11.48;;
35648;SDS011;21768;48.562;13.414;2024-03-29T01:56:06;264.42;;;11.07;;
35648;SDS011;21768;48.562;13.414;2024-03-29T01:58:33;210.10;;;7.60;;
35648;SDS011;21768;48.562;13.414;2024-03-29T02:01:00;175.98;;;9.40;;
35648;SDS011;21768;48.562;13.414;2024-03-29T02:03:26;204.07;;;6.75;;
35648;SDS011;21768;48.562;13.414;2024-03-29T02:05:52;244.00;;;9.00;;
35648;SDS011;21768;48.562;13.414;2024-03-29T02:08:18;137.73;;;6.85;;
35648;SDS011;21768;48.562;13.414;2024-03-29T02:10:47;129.32;;;6.38;;
35648;SDS011;21768;48.562;13.414;2024-03-29T02:13:13;50.10;;;6.28;;
35648;SDS011;21768;48.562;13.414;2024-03-29T02:15:39;50.88;;;5.80;;
35648;SDS011;21768;48.562;13.414;2024-03-29T02:18:05;17.38;;;5.18;;
35648;SDS011;21768;48.562;13.414;2024-03-29T02:20:32;15.18;;;4.20;;
35648;SDS011;21768;48.562;13.414;2024-03-29T02:23:00;9.70;;;4.53;;
35648;SDS011;21768;48.562;13.414;2024-03-29T02:25:30;5.35;;;3.85;;
35648;SDS011;21768;48.562;13.414;2024-03-29T02:27:56;6.38;;;4.53;;
35648;SDS011;21768;48.562;13.414;2024-03-29T02:30:23;6.53;;;4.43;;
35648;SDS011;21768;48.562;13.414;2024-03-29T02:32:49;6.88;;;4.35;;
35648;SDS011;21768;48.562;13.414;2024-03-29T02:35:15;7.15;;;4.57;;
35648;SDS011;21768;48.562;13.414;2024-03-29T02:37:41;7.25;;;4.35;;
35648;SDS011;21768;48.562;13.414;2024-03-29T02:40:06;5.78;;;3.80;;
35648;SDS011;21768;48.562;13.414;2024-03-29T02:42:34;6.68;;;4.28;;
35648;SDS011;21768;48.562;13.414;2024-03-29T02:45:03;8.10;;;4.47;;
35648;SDS011;21768;48.562;13.414;2024-03-29T02:47:29;5.93;;;4.10;;
35648;SDS011;21768;48.562;13.414;2024-03-29T02:49:55;7.18;;;4.43;;
35648;SDS011;21768;48.562;13.414;2024-03-29T02:52:20;6.78;;;4.00;;
35648;SDS011;21768;48.562;13.414;2024-03-29T02:54:46;6.88;;;4.63;;
35648;SDS011;21768;48.562;13.414;2024-03-29T02:57:12;13.32;;;4.50;;
35648;SDS011;21768;48.562;13.414;2024-03-29T02:59:39;5.35;;;3.85;;
35648;SDS011;21768;48.562;13.414;2024-03-29T03:02:05;7.68;;;4.32;;
35648;SDS011;21768;48.562;13.414;2024-03-29T03:04:31;7.65;;;4.00;;
35648;SDS011;21768;48.562;13.414;2024-03-29T03:06:56;5.80;;;3.80;;
35648;SDS011;21768;48.562;13.414;2024-03-29T03:09:42;8.00;;;4.30;;
35648;SDS011;21768;48.562;13.414;2024-03-29T03:12:26;5.78;;;3.72;;
35648;SDS011;21768;48.562;13.414;2024-03-29T03:14:52;5.97;;;4.15;;
35648;SDS011;21768;48.562;13.414;2024-03-29T03:17:17;6.53;;;4.30;;
35648;SDS011;21768;48.562;13.414;2024-03-29T03:19:43;6.00;;;3.95;;
35648;SDS011;21768;48.562;13.414;2024-03-29T03:22:09;9.07;;;4.43;;
35648;SDS011;21768;48.562;13.414;2024-03-29T03:24:34;6.07;;;4.03;;
35648;SDS011;21768;48.562;13.414;2024-03-29T03:27:00;7.03;;;4.32;;
35648;SDS011;21768;48.562;13.414;2024-03-29T03:29:25;6.05;;;4.13;;
35648;SDS011;21768;48.562;13.414;2024-03-29T03:31:51;7.85;;;4.70;;
35648;SDS011;21768;48.562;13.414;2024-03-29T03:34:16;6.65;;;4.47;;
35648;SDS011;21768;48.562;13.414;2024-03-29T03:36:42;8.00;;;4.60;;
35648;SDS011;21768;48.562;13.414;2024-03-29T03:39:07;12.60;;;4.90;;
35648;SDS011;21768;48.562;13.414;2024-03-29T03:41:33;8.65;;;5.15;;
35648;SDS011;21768;48.562;13.414;2024-03-29T03:43:59;8.10;;;4.93;;
35648;SDS011;21768;48.562;13.414;2024-03-29T03:46:24;8.48;;;5.63;;
35648;SDS011;21768;48.562;13.414;2024-03-29T03:48:50;8.70;;;5.03;;
35648;SDS011;21768;48.562;13.414;2024-03-29T03:51:15;8.35;;;5.10;;
35648;SDS011;21768;48.562;13.414;2024-03-29T03:53:41;10.27;;;4.72;;
35648;SDS011;21768;48.562;13.414;2024-03-29T03:56:06;9.48;;;6.03;;
35648;SDS011;21768;48.562;13.414;2024-03-29T03:58:32;10.02;;;5.93;;
35648;SDS011;21768;48.562;13.414;2024-03-29T04:01:03;12.25;;;5.80;;
35648;SDS011;21768;48.562;13.414;2024-03-29T04:03:29;8.93;;;5.18;;
35648;SDS011;21768;48.562;13.414;2024-03-29T04:05:55;9.95;;;5.65;;
35648;SDS011;21768;48.562;13.414;2024-03-29T04:08:20;10.18;;;5.90;;
35648;SDS011;21768;48.562;13.414;2024-03-29T04:10:46;9.43;;;5.82;;
35648;SDS011;21768;48.562;13.414;2024-03-29T04:13:11;14.48;;;6.22;;
35648;SDS011;21768;48.562;13.414;2024-03-29T04:15:37;15.05;;;7.00;;
35648;SDS011;21768;48.562;13.414;2024-03-29T04:18:02;11.77;;;5.70;;
35648;SDS011;21768;48.562;13.414;2024-03-29T04:20:28;13.07;;;6.15;;
35648;SDS011;21768;48.562;13.414;2024-03-29T04:22:53;12.38;;;6.35;;
35648;SDS011;21768;48.562;13.414;2024-03-29T04:25:18;10.38;;;6.30;;
35648;SDS011;21768;48.562;13.414;2024-03-29T04:27:44;10.93;;;5.95;;
35648;SDS011;21768;48.562;13.414;2024-03-29T04:30:09;9.10;;;5.85;;
35648;SDS011;21768;48.562;13.414;2024-03-29T04:32:35;11.23;;;6.65;;
35648;SDS011;21768;48.562;13.414;2024-03-29T04:35:00;11.18;;;6.03;;
35648;SDS011;21768;48.562;13.414;2024-03-29T04:37:26;10.05;;;5.97;;
35648;SDS011;21768;48.562;13.414;2024-03-29T04:39:51;12.13;;;6.75;;
35648;SDS011;21768;48.562;13.414;2024-03-29T04:42:17;11.88;;;6.80;;
35648;SDS011;21768;48.562;13.414;2024-03-29T04:44:42;10.85;;;6.38;;
35648;SDS011;21768;48.562;13.414;2024-03-29T04:47:08;9.57;;;5.93;;
35648;SDS011;21768;48.562;13.414;2024-03-29T04:49:33;11.52;;;6.70;;
35648;SDS011;21768;48.562;13.414;2024-03-29T04:52:02;10.73;;;6.70;;
35648;SDS011;21768;48.562;13.414;2024-03-29T04:54:32;10.32;;;6.57;;
35648;SDS011;21768;48.562;13.414;2024-03-29T04:56:58;11.82;;;6.38;;
35648;SDS011;21768;48.562;13.414;2024-03-29T04:59:24;10.73;;;6.10;;
35648;SDS011;21768;48.562;13.414;2024-03-29T05:01:50;12.75;;;6.63;;
35648;SDS011;21768;48.562;13.414;2024-03-29T05:04:19;10.45;;;6.07;;
35648;SDS011;21768;48.562;13.414;2024-03-29T05:06:57;13.25;;;6.53;;
35648;SDS011;21768;48.562;13.414;2024-03-29T05:09:23;13.98;;;6.20;;
35648;SDS011;21768;48.562;13.414;2024-03-29T05:11:49;12.75;;;6.38;;
35648;SDS011;21768;48.562;13.414;2024-03-29T05:14:15;10.82;;;6.35;;
35648;SDS011;21768;48.562;13.414;2024-03-29T05:16:44;16.38;;;7.35;;
35648;SDS011;21768;48.562;13.414;2024-03-29T05:19:13;9.30;;;5.88;;
35648;SDS011;21768;48.562;13.414;2024-03-29T05:21:40;12.93;;;6.38;;
35648;SDS011;21768;48.562;13.414;2024-03-29T05:24:06;10.60;;;6.22;;
35648;SDS011;21768;48.562;13.414;2024-03-29T05:26:32;11.45;;;6.05;;
35648;SDS011;21768;48.562;13.414;2024-03-29T05:28:58;12.27;;;6.22;;
35648;SDS011;21768;48.562;13.414;2024-03-29T05:31:25;12.98;;;6.68;;
35648;SDS011;21768;48.562;13.414;2024-03-29T05:33:50;11.00;;;5.88;;
35648;SDS011;21768;48.562;13.414;2024-03-29T05:36:16;9.27;;;5.82;;
35648;SDS011;21768;48.562;13.414;2024-03-29T05:38:43;8.98;;;5.47;;
35648;SDS011;21768;48.562;13.414;2024-03-29T05:41:09;9.77;;;5.80;;
35648;SDS011;21768;48.562;13.414;2024-03-29T05:43:34;9.25;;;5.28;;
35648;SDS011;21768;48.562;13.414;2024-03-29T05:46:00;8.73;;;5.32;;
35648;SDS011;21768;48.562;13.414;2024-03-29T05:48:26;8.30;;;5.10;;
35648;SDS011;21768;48.562;13.414;2024-03-29T05:50:52;9.23;;;5.65;;
35648;SDS011;21768;48.562;13.414;2024-03-29T05:53:17;9.80;;;5.53;;
35648;SDS011;21768;48.562;13.414;2024-03-29T05:55:43;9.60;;;5.13;;
35648;SDS011;21768;48.562;13.414;2024-03-29T05:58:08;10.02;;;5.15;;
35648;SDS011;21768;48.562;13.414;2024-03-29T06:00:34;9.07;;;5.53;;
35648;SDS011;21768;48.562;13.414;2024-03-29T06:03:00;9.55;;;5.50;;
35648;SDS011;21768;48.562;13.414;2024-03-29T06:05:28;8.10;;;5.07;;
35648;SDS011;21768;48.562;13.414;2024-03-29T06:07:55;8.20;;;4.43;;
35648;SDS011;21768;48.562;13.414;2024-03-29T06:10:20;6.53;;;3.97;;
35648;SDS011;21768;48.562;13.414;2024-03-29T06:12:46;7.35;;;4.25;;
35648;SDS011;21768;48.562;13.414;2024-03-29T06:15:11;11.02;;;4.53;;
35648;SDS011;21768;48.562;13.414;2024-03-29T06:17:55;6.45;;;4.05;;
35648;SDS011;21768;48.562;13.414;2024-03-29T06:20:22;8.63;;;3.50;;
35648;SDS011;21768;48.562;13.414;2024-03-29T06:22:48;9.00;;;4.38;;
35648;SDS011;21768;48.562;13.414;2024-03-29T06:25:14;10.70;;;3.58;;
35648;SDS011;21768;48.562;13.414;2024-03-29T06:27:40;9.88;;;3.40;;
35648;SDS011;21768;48.562;13.414;2024-03-29T06:30:06;7.15;;;4.07;;
35648;SDS011;21768;48.562;13.414;2024-03-29T06:32:33;6.40;;;3.78;;
35648;SDS011;21768;48.562;13.414;2024-03-29T06:34:59;5.18;;;3.38;;
35648;SDS011;21768;48.562;13.414;2024-03-29T06:37:25;5.80;;;3.47;;
35648;SDS011;21768;48.562;13.414;2024-03-29T06:39:52;6.53;;;3.45;;
35648;SDS011;21768;48.562;13.414;2024-03-29T06:42:18;4.97;;;3.45;;
35648;SDS011;21768;48.562;13.414;2024-03-29T06:44:43;5.63;;;3.40;;
35648;SDS011;21768;48.562;13.414;2024-03-29T06:47:09;5.70;;;3.55;;
35648;SDS011;21768;48.562;13.414;2024-03-29T06:49:34;7.90;;;3.78;;
35648;SDS011;21768;48.562;13.414;2024-03-29T06:52:00;6.28;;;2.90;;
35648;SDS011;21768;48.562;13.414;2024-03-29T06:54:27;5.80;;;3.10;;
35648;SDS011;21768;48.562;13.414;2024-03-29T06:56:53;7.22;;;3.30;;
35648;SDS011;21768;48.562;13.414;2024-03-29T06:59:19;5.18;;;2.90;;
35648;SDS011;21768;48.562;13.414;2024-03-29T07:01:45;3.58;;;2.10;;
35648;SDS011;21768;48.562;13.414;2024-03-29T07:04:12;3.08;;;1.70;;
35648;SDS011;21768;48.562;13.414;2024-03-29T07:06:38;3.63;;;2.00;;
35648;SDS011;21768;48.562;13.414;2024-03-29T07:09:04;2.88;;;1.55;;
35648;SDS011;21768;48.562;13.414;2024-03-29T07:11:31;4.63;;;1.95;;
35648;SDS011;21768;48.562;13.414;2024-03-29T07:13:56;3.13;;;1.73;;
35648;SDS011;21768;48.562;13.414;2024-03-29T07:16:22;3.53;;;1.70;;
35648;SDS011;21768;48.562;13.414;2024-03-29T07:18:48;1.90;;;1.33;;
35648;SDS011;21768;48.562;13.414;2024-03-29T07:21:14;3.35;;;1.77;;
35648;SDS011;21768;48.562;13.414;2024-03-29T07:23:39;2.58;;;1.50;;
35648;SDS011;21768;48.562;13.414;2024-03-29T07:26:05;3.63;;;1.52;;
35648;SDS011;21768;48.562;13.414;2024-03-29T07:28:31;1.90;;;1.30;;
35648;SDS011;21768;48.562;13.414;2024-03-29T07:30:57;2.83;;;1.50;;
35648;SDS011;21768;48.562;13.414;2024-03-29T07:33:23;3.53;;;1.30;;
35648;SDS011;21768;48.562;13.414;2024-03-29T07:35:53;1.92;;;1.27;;
35648;SDS011;21768;48.562;13.414;2024-03-29T07:38:18;5.47;;;2.25;;
35648;SDS011;21768;48.562;13.414;2024-03-29T07:40:45;2.10;;;1.20;;
35648;SDS011;21768;48.562;13.414;2024-03-29T07:43:11;2.47;;;1.35;;
35648;SDS011;21768;48.562;13.414;2024-03-29T07:45:39;8.52;;;3.38;;
35648;SDS011;21768;48.562;13.414;2024-03-29T07:48:06;2.75;;;1.38;;
35648;SDS011;21768;48.562;13.414;2024-03-29T07:50:32;3.15;;;1.52;;
35648;SDS011;21768;48.562;13.414;2024-03-29T07:52:58;3.00;;;1.63;;
35648;SDS011;21768;48.562;13.414;2024-03-29T07:55:23;2.20;;;1.25;;
35648;SDS011;21768;48.562;13.414;2024-03-29T07:57:49;4.75;;;1.77;;
35648;SDS011;21768;48.562;13.414;2024-03-29T08:00:15;2.50;;;1.20;;
35648;SDS011;21768;48.562;13.414;2024-03-29T08:02:41;1.98;;;1.15;;
35648;SDS011;21768;48.562;13.414;2024-03-29T08:05:06;4.22;;;1.60;;
35648;SDS011;21768;48.562;13.414;2024-03-29T08:07:32;1.77;;;1.00;;
35648;SDS011;21768;48.562;13.414;2024-03-29T08:09:57;4.45;;;1.00;;
35648;SDS011;21768;48.562;13.414;2024-03-29T08:12:23;1.95;;;0.80;;
35648;SDS011;21768;48.562;13.414;2024-03-29T08:14:49;3.25;;;1.58;;
35648;SDS011;21768;48.562;13.414;2024-03-29T08:17:14;2.50;;;1.27;;
35648;SDS011;21768;48.562;13.414;2024-03-29T08:19:40;1.80;;;0.70;;
35648;SDS011;21768;48.562;13.414;2024-03-29T08:22:07;1.23;;;0.60;;
35648;SDS011;21768;48.562;13.414;2024-03-29T08:24:35;1.42;;;0.60;;
35648;SDS011;21768;48.562;13.414;2024-03-29T08:27:03;1.70;;;0.50;;
35648;SDS011;21768;48.562;13.414;2024-03-29T08:29:29;1.15;;;0.50;;
35648;SDS011;21768;48.562;13.414;2024-03-29T08:31:54;1.08;;;0.50;;
35648;SDS011;21768;48.562;13.414;2024-03-29T08:34:20;1.00;;;0.37;;
35648;SDS011;21768;48.562;13.414;2024-03-29T08:36:45;1.17;;;0.50;;
35648;SDS011;21768;48.562;13.414;2024-03-29T08:39:12;1.15;;;0.40;;
35648;SDS011;21768;48.562;13.414;2024-03-29T08:41:37;0.55;;;0.40;;
35648;SDS011;21768;48.562;13.414;2024-03-29T08:44:03;0.52;;;0.38;;
35648;SDS011;21768;48.562;13.414;2024-03-29T08:46:29;1.15;;;0.52;;
35648;SDS011;21768;48.562;13.414;2024-03-29T08:48:55;0.98;;;0.50;;
35648;SDS011;21768;48.562;13.414;2024-03-29T08:51:20;2.92;;;0.50;;
35648;SDS011;21768;48.562;13.414;2024-03-29T08:53:46;0.32;;;0.30;;
35648;SDS011;21768;48.562;13.414;2024-03-29T08:56:12;0.52;;;0.30;;
35648;SDS011;21768;48.562;13.414;2024-03-29T08:58:40;1.17;;;0.43;;
35648;SDS011;21768;48.562;13.414;2024-03-29T09:01:06;1.58;;;0.47;;
35648;SDS011;21768;48.562;13.414;2024-03-29T09:03:32;0.85;;;0.40;;
35648;SDS011;21768;48.562;13.414;2024-03-29T09:05:58;2.25;;;0.50;;
35648;SDS011;21768;48.562;13.414;2024-03-29T09:08:23;0.60;;;0.35;;
35648;SDS011;21768;48.562;13.414;2024-03-29T09:10:49;2.13;;;0.40;;
35648;SDS011;21768;48.562;13.414;2024-03-29T09:13:14;4.40;;;0.38;;
35648;SDS011;21768;48.562;13.414;2024-03-29T09:15:40;1.25;;;0.40;;
35648;SDS011;21768;48.562;13.414;2024-03-29T09:18:05;0.80;;;0.43;;
35648;SDS011;21768;48.562;13.414;2024-03-29T09:20:44;2.45;;;0.43;;
35648;SDS011;21768;48.562;13.414;2024-03-29T09:23:10;0.43;;;0.40;;
35648;SDS011;21768;48.562;13.414;2024-03-29T09:25:39;2.33;;;0.30;;
35648;SDS011;21768;48.562;13.414;2024-03-29T09:28:05;1.95;;;0.50;;
35648;SDS011;21768;48.562;13.414;2024-03-29T09:30:31;0.73;;;0.40;;
35648;SDS011;21768;48.562;13.414;2024-03-29T09:32:58;1.55;;;0.50;;
35648;SDS011;21768;48.562;13.414;2024-03-29T09:35:23;1.80;;;0.55;;
35648;SDS011;21768;48.562;13.414;2024-03-29T09:37:49;0.90;;;0.43;;
35648;SDS011;21768;48.562;13.414;2024-03-29T09:40:15;1.05;;;0.35;;
35648;SDS011;21768;48.562;13.414;2024-03-29T09:42:40;0.40;;;0.30;;
35648;SDS011;21768;48.562;13.414;2024-03-29T09:45:07;0.73;;;0.40;;
35648;SDS011;21768;48.562;13.414;2024-03-29T09:47:34;1.05;;;0.40;;
35648;SDS011;21768;48.562;13.414;2024-03-29T09:50:02;1.30;;;0.40;;
35648;SDS011;21768;48.562;13.414;2024-03-29T09:52:29;1.48;;;0.57;;
35648;SDS011;21768;48.562;13.414;2024-03-29T09:54:57;0.80;;;0.45;;
35648;SDS011;21768;48.562;13.414;2024-03-29T09:57:23;1.20;;;0.40;;
35648;SDS011;21768;48.562;13.414;2024-03-29T09:59:58;0.93;;;0.35;;
35648;SDS011;21768;48.562;13.414;2024-03-29T10:02:25;0.73;;;0.30;;
35648;SDS011;21768;48.562;13.414;2024-03-29T10:04:56;2.03;;;0.60;;
35648;SDS011;21768;48.562;13.414;2024-03-29T10:07:22;0.90;;;0.35;;
35648;SDS011;21768;48.562;13.414;2024-03-29T10:09:49;0.35;;;0.35;;
35648;SDS011;21768;48.562;13.414;2024-03-29T10:12:16;2.63;;;0.47;;
35648;SDS011;21768;48.562;13.414;2024-03-29T10:14:46;0.63;;;0.50;;
35648;SDS011;21768;48.562;13.414;2024-03-29T10:17:17;1.02;;;0.40;;
35648;SDS011;21768;48.562;13.414;2024-03-29T10:19:43;1.38;;;0.50;;
35648;SDS011;21768;48.562;13.414;2024-03-29T10:22:09;1.27;;;0.60;;
35648;SDS011;21768;48.562;13.414;2024-03-29T10:24:34;0.70;;;0.40;;
35648;SDS011;21768;48.562;13.414;2024-03-29T10:26:59;1.52;;;0.70;;
35648;SDS011;21768;48.562;13.414;2024-03-29T10:29:29;0.57;;;0.50;;
35648;SDS011;21768;48.562;13.414;2024-03-29T10:31:57;1.35;;;0.60;;
35648;SDS011;21768;48.562;13.414;2024-03-29T10:34:26;0.55;;;0.43;;
35648;SDS011;21768;48.562;13.414;2024-03-29T10:36:52;1.00;;;0.50;;
35648;SDS011;21768;48.562;13.414;2024-03-29T10:39:17;0.73;;;0.47;;
35648;SDS011;21768;48.562;13.414;2024-03-29T10:41:43;0.90;;;0.40;;
35648;SDS011;21768;48.562;13.414;2024-03-29T10:44:11;1.00;;;0.70;;
35648;SDS011;21768;48.562;13.414;2024-03-29T10:46:38;1.33;;;0.60;;
35648;SDS011;21768;48.562;13.414;2024-03-29T10:49:10;0.82;;;0.40;;
35648;SDS011;21768;48.562;13.414;2024-03-29T10:51:39;1.48;;;0.57;;
35648;SDS011;21768;48.562;13.414;2024-03-29T10:54:07;1.30;;;0.68;;
35648;SDS011;21768;48.562;13.414;2024-03-29T10:56:35;2.47;;;0.60;;
35648;SDS011;21768;48.562;13.414;2024-03-29T11:02:08;0.90;;;0.50;;
35648;SDS011;21768;48.562;13.414;2024-03-29T11:04:38;0.45;;;0.40;;
35648;SDS011;21768;48.562;13.414;2024-03-29T11:07:15;1.25;;;0.63;;
35648;SDS011;21768;48.562;13.414;2024-03-29T11:09:50;1.73;;;0.55;;
35648;SDS011;21768;48.562;13.414;2024-03-29T11:12:22;1.33;;;0.57;;
35648;SDS011;21768;48.562;13.414;2024-03-29T11:14:52;4.15;;;1.05;;
35648;SDS011;21768;48.562;13.414;2024-03-29T11:17:28;0.73;;;0.63;;
35648;SDS011;21768;48.562;13.414;2024-03-29T11:19:55;3.33;;;0.60;;
35648;SDS011;21768;48.562;13.414;2024-03-29T11:22:22;0.85;;;0.60;;
35648;SDS011;21768;48.562;13.414;2024-03-29T11:24:50;1.77;;;0.95;;
35648;SDS011;21768;48.562;13.414;2024-03-29T11:27:16;0.52;;;0.40;;
35648;SDS011;21768;48.562;13.414;2024-03-29T11:29:41;1.15;;;0.50;;
35648;SDS011;21768;48.562;13.414;2024-03-29T11:32:10;1.77;;;0.60;;
35648;SDS011;21768;48.562;13.414;2024-03-29T11:34:42;1.15;;;0.50;;
35648;SDS011;21768;48.562;13.414;2024-03-29T11:37:11;0.95;;;0.55;;
35648;SDS011;21768;48.562;13.414;2024-03-29T11:39:46;2.05;;;0.60;;
35648;SDS011;21768;48.562;13.414;2024-03-29T11:42:12;1.02;;;0.70;;
35648;SDS011;21768;48.562;13.414;2024-03-29T11:44:38;0.80;;;0.60;;
35648;SDS011;21768;48.562;13.414;2024-03-29T11:47:04;1.13;;;0.57;;
35648;SDS011;21768;48.562;13.414;2024-03-29T11:49:32;4.50;;;0.70;;
35648;SDS011;21768;48.562;13.414;2024-03-29T11:52:01;5.30;;;1.50;;
35648;SDS011;21768;48.562;13.414;2024-03-29T11:54:36;0.70;;;0.47;;
35648;SDS011;21768;48.562;13.414;2024-03-29T11:57:02;2.22;;;0.60;;
35648;SDS011;21768;48.562;13.414;2024-03-29T11:59:28;1.15;;;0.55;;
35648;SDS011;21768;48.562;13.414;2024-03-29T12:01:54;2.28;;;0.65;;
35648;SDS011;21768;48.562;13.414;2024-03-29T12:04:20;2.83;;;1.40;;
35648;SDS011;21768;48.562;13.414;2024-03-29T12:06:46;0.77;;;0.63;;
35648;SDS011;21768;48.562;13.414;2024-03-29T12:09:12;3.65;;;1.23;;
35648;SDS011;21768;48.562;13.414;2024-03-29T12:11:37;2.03;;;0.80;;
35648;SDS011;21768;48.562;13.414;2024-03-29T12:14:03;0.98;;;0.70;;
35648;SDS011;21768;48.562;13.414;2024-03-29T12:16:46;0.80;;;0.57;;
35648;SDS011;21768;48.562;13.414;2024-03-29T12:19:21;2.50;;;1.00;;
35648;SDS011;21768;48.562;13.414;2024-03-29T12:21:50;1.10;;;0.68;;
35648;SDS011;21768;48.562;13.414;2024-03-29T12:24:16;3.53;;;0.60;;
35648;SDS011;21768;48.562;13.414;2024-03-29T12:26:42;4.70;;;0.95;;
35648;SDS011;21768;48.562;13.414;2024-03-29T12:29:07;4.78;;;0.60;;
35648;SDS011;21768;48.562;13.414;2024-03-29T12:31:33;1.90;;;0.60;;
35648;SDS011;21768;48.562;13.414;2024-03-29T12:33:58;2.13;;;0.57;;
35648;SDS011;21768;48.562;13.414;2024-03-29T12:36:27;1.55;;;0.90;;
35648;SDS011;21768;48.562;13.414;2024-03-29T12:38:55;0.82;;;0.50;;
35648;SDS011;21768;48.562;13.414;2024-03-29T12:41:23;1.40;;;0.60;;
35648;SDS011;21768;48.562;13.414;2024-03-29T12:43:50;1.00;;;0.47;;
35648;SDS011;21768;48.562;13.414;2024-03-29T12:46:16;1.83;;;0.80;;
35648;SDS011;21768;48.562;13.414;2024-03-29T12:48:43;1.50;;;0.63;;
35648;SDS011;21768;48.562;13.414;2024-03-29T12:51:08;1.55;;;0.50;;
35648;SDS011;21768;48.562;13.414;2024-03-29T12:53:33;1.90;;;0.60;;
35648;SDS011;21768;48.562;13.414;2024-03-29T12:55:59;2.08;;;0.55;;
35648;SDS011;21768;48.562;13.414;2024-03-29T12:58:25;0.77;;;0.40;;
35648;SDS011;21768;48.562;13.414;2024-03-29T13:00:50;4.20;;;0.70;;
35648;SDS011;21768;48.562;13.414;2024-03-29T13:03:16;1.65;;;0.60;;
35648;SDS011;21768;48.562;13.414;2024-03-29T13:05:41;3.08;;;0.38;;
35648;SDS011;21768;48.562;13.414;2024-03-29T13:08:07;1.13;;;0.60;;
35648;SDS011;21768;48.562;13.414;2024-03-29T13:10:40;2.17;;;0.75;;
35648;SDS011;21768;48.562;13.414;2024-03-29T13:13:06;0.65;;;0.52;;
35648;SDS011;21768;48.562;13.414;2024-03-29T13:15:32;1.75;;;0.50;;
35648;SDS011;21768;48.562;13.414;2024-03-29T13:18:02;2.67;;;0.50;;
35648;SDS011;21768;48.562;13.414;2024-03-29T13:20:29;1.63;;;0.60;;
35648;SDS011;21768;48.562;13.414;2024-03-29T13:22:55;1.73;;;0.70;;
35648;SDS011;21768;48.562;13.414;2024-03-29T13:25:22;3.92;;;0.68;;
35648;SDS011;21768;48.562;13.414;2024-03-29T13:27:54;1.95;;;0.63;;
35648;SDS011;21768;48.562;13.414;2024-03-29T13:30:24;1.00;;;0.63;;
35648;SDS011;21768;48.562;13.414;2024-03-29T13:32:50;5.55;;;0.70;;
35648;SDS011;21768;48.562;13.414;2024-03-29T13:35:16;0.90;;;0.55;;
35648;SDS011;21768;48.562;13.414;2024-03-29T13:37:46;0.80;;;0.50;;
35648;SDS011;21768;48.562;13.414;2024-03-29T13:40:13;2.72;;;0.77;;
35648;SDS011;21768;48.562;13.414;2024-03-29T13:42:39;1.63;;;0.50;;
35648;SDS011;21768;48.562;13.414;2024-03-29T13:45:05;1.60;;;0.70;;
35648;SDS011;21768;48.562;13.414;2024-03-29T13:47:35;1.48;;;0.50;;
35648;SDS011;21768;48.562;13.414;2024-03-29T13:50:02;1.70;;;0.60;;
35648;SDS011;21768;48.562;13.414;2024-03-29T13:52:27;1.38;;;0.60;;
35648;SDS011;21768;48.562;13.414;2024-03-29T13:54:53;1.13;;;0.60;;
35648;SDS011;21768;48.562;13.414;2024-03-29T13:57:19;2.20;;;0.70;;
35648;SDS011;21768;48.562;13.414;2024-03-29T13:59:45;0.90;;;0.45;;
35648;SDS011;21768;48.562;13.414;2024-03-29T14:02:11;2.35;;;0.70;;
35648;SDS011;21768;48.562;13.414;2024-03-29T14:04:38;3.17;;;0.60;;
35648;SDS011;21768;48.562;13.414;2024-03-29T14:07:04;1.65;;;0.57;;
35648;SDS011;21768;48.562;13.414;2024-03-29T14:09:34;1.10;;;0.63;;
35648;SDS011;21768;48.562;13.414;2024-03-29T14:12:00;6.13;;;0.65;;
35648;SDS011;21768;48.562;13.414;2024-03-29T14:14:25;1.60;;;0.50;;
35648;SDS011;21768;48.562;13.414;2024-03-29T14:16:51;3.13;;;0.73;;
35648;SDS011;21768;48.562;13.414;2024-03-29T14:19:16;4.13;;;0.85;;
35648;SDS011;21768;48.562;13.414;2024-03-29T14:21:41;2.10;;;0.60;;
35648;SDS011;21768;48.562;13.414;2024-03-29T14:24:07;2.20;;;0.47;;
35648;SDS011;21768;48.562;13.414;2024-03-29T14:26:32;1.90;;;0.50;;
35648;SDS011;21768;48.562;13.414;2024-03-29T14:28:58;1.13;;;0.60;;